»·PEaware :: N9273T M94-S36

N9273T :: M94-S36

FLIGHT INFORMATION

Flight Status: Arrived
Operator: Privately registered:
United States
More flights under this callsign
Pilot: Jim L. (28297)
Aircraft: CESSNA T210 TURBO CENTURION
(T210)
More flights by this aircraft type
Origin: M94 Desert Aire
United States
Destination: S36 Norman Grier Field
United States
More flights between these airports :: More routes between these airports
Route:
File this flight plan on PilotEdge
Remarks: Alphabet Challenge Washington Edition
Altitude:
(Current/Filed)
8,500ft
Speed:
(Current/Filed)
153kts
Departed: 22-Apr-20 09:13 AM
Arrived: 22-Apr-20 10:05 AM
Distance/Time
Traveled:
98nm/0:52
Distance/Time
To Go:
Arrived

Flight Plot

Page will automatically refresh every two minutes.

Flight plan parsing failed; only flown route is shown


Map Options




Map Legend


Flown Route
Filed Route
Departure Airport
Arrival Airport
Navaid (VOR, NDB)
Fix

Horizontal Profiles

Position Reports

Time Latitude Longitude Heading Altitude Ground
Speed
22-Apr-20 09:05 46.684505 -119.913872 115 589ft 0kts
22-Apr-20 09:06 46.684505 -119.913872 115 589ft 0kts
22-Apr-20 09:08 46.684505 -119.913872 115 589ft 0kts
22-Apr-20 09:09 46.684505 -119.913872 115 589ft 0kts
22-Apr-20 09:10 46.684505 -119.913872 115 589ft 0kts
22-Apr-20 09:11 46.684501 -119.913860 115 589ft 0kts
22-Apr-20 09:12 46.685086 -119.913440 298 589ft 0kts
22-Apr-20 09:13 46.696152 -119.938817 335 1389ft 102kts
22-Apr-20 09:14 46.724244 -119.930548 19 2772ft 106kts
22-Apr-20 09:15 46.751821 -119.914095 24 4058ft 109kts
22-Apr-20 09:16 46.779888 -119.897332 8 5316ft 111kts
22-Apr-20 09:17 46.810248 -119.889044 15 6553ft 113kts
22-Apr-20 09:18 46.841439 -119.883278 5 7759ft 115kts
22-Apr-20 09:19 46.875151 -119.876710 9 8514ft 147kts
22-Apr-20 09:20 46.906044 -119.899633 287 8506ft 150kts
22-Apr-20 09:21 46.918685 -119.959294 287 8500ft 155kts
22-Apr-20 09:22 46.931637 -120.020181 287 8500ft 156kts
22-Apr-20 09:23 46.944599 -120.080939 287 8499ft 156kts
22-Apr-20 09:23 46.955371 -120.131603 287 8499ft 156kts
22-Apr-20 09:25 46.970439 -120.202665 287 8499ft 156kts
22-Apr-20 09:26 46.983329 -120.263669 287 8500ft 158kts
22-Apr-20 09:26 46.994190 -120.315260 287 8500ft 159kts
22-Apr-20 09:27 47.007218 -120.377200 287 8499ft 159kts
22-Apr-20 09:29 47.022395 -120.449654 287 8499ft 159kts
22-Apr-20 09:29 47.033199 -120.501622 287 8500ft 160kts
22-Apr-20 09:30 47.046258 -120.564425 287 8499ft 160kts
22-Apr-20 09:31 47.059297 -120.627111 287 8499ft 160kts
22-Apr-20 09:32 47.072298 -120.689778 286 8499ft 160kts
22-Apr-20 09:33 47.085213 -120.752288 286 8499ft 160kts
22-Apr-20 09:34 47.098138 -120.815005 286 8499ft 160kts
22-Apr-20 09:35 47.110944 -120.877410 286 8499ft 160kts
22-Apr-20 09:36 47.123858 -120.940463 286 8499ft 160kts
22-Apr-20 09:37 47.136657 -121.003126 286 8499ft 160kts
22-Apr-20 09:38 47.149484 -121.066170 286 8499ft 160kts
22-Apr-20 09:39 47.162215 -121.129124 286 8499ft 160kts
22-Apr-20 09:40 47.174413 -121.192160 279 8500ft 160kts
22-Apr-20 09:41 47.177687 -121.257625 273 8499ft 160kts
22-Apr-20 09:42 47.181152 -121.323184 274 8499ft 160kts
22-Apr-20 09:43 47.185012 -121.388689 275 8499ft 160kts
22-Apr-20 09:44 47.188943 -121.453962 275 8499ft 160kts
22-Apr-20 09:45 47.192773 -121.519626 275 8499ft 160kts
22-Apr-20 09:46 47.196548 -121.585107 275 8499ft 160kts
22-Apr-20 09:47 47.200253 -121.650053 274 8499ft 160kts
22-Apr-20 09:48 47.204074 -121.717701 274 8164ft 174kts
22-Apr-20 09:49 47.205987 -121.790419 256 7390ft 180kts
22-Apr-20 09:50 47.191919 -121.860718 241 6588ft 176kts
22-Apr-20 09:51 47.164065 -121.919215 231 5787ft 174kts
22-Apr-20 09:52 47.133080 -121.974086 222 4825ft 174kts
22-Apr-20 09:53 47.136614 -122.024220 350 3805ft 173kts
22-Apr-20 09:54 47.182733 -122.043360 341 2807ft 172kts
22-Apr-20 09:55 47.228258 -122.064908 342 1806ft 171kts
22-Apr-20 09:56 47.271573 -122.085158 342 1516ft 147kts
22-Apr-20 09:57 47.306574 -122.094868 347 1443ft 114kts
22-Apr-20 09:58 47.329761 -122.091095 12 1332ft 82kts
22-Apr-20 09:59 47.336969 -122.115464 248 1418ft 83kts
22-Apr-20 10:00 47.316369 -122.123122 177 1473ft 85kts
22-Apr-20 10:01 47.294785 -122.113510 113 1280ft 84kts
22-Apr-20 10:02 47.311061 -122.102324 15 954ft 79kts
22-Apr-20 10:03 47.331128 -122.102169 351 531ft 73kts
22-Apr-20 10:04 47.339879 -122.103764 78 476ft 0kts
22-Apr-20 10:05 47.339880 -122.103760 78 476ft 0kts

Navigation Log

Ident Type
Flight plan parsing failed, navigation log unavailable